Have a Safe July 4th! 

Flight Track Log - Related Links

Times and Time Zones

All times are in EDT time to prevent confusion due to time zone crossing. See the DAL1578 flight status page for this flight to view local times or setup timezone preferences in your user account.

Time Position Orientation Groundspeed Altitude Reporting Facility
EDT Latitude Longitude Course Direction KTS MPH feet Rate Location/Type
Wed 12:50:05 PM 39.7833 -104.6500 98° East 233 268 7,700  Level Denver TRACON
Wed 12:51:05 PM 39.7667 -104.5333 100° East 295 339 9,800 1,400 Climbing Denver TRACON
Wed 12:52:05 PM 39.7667 -104.4167 90° East 364 419 10,500 2,050 Climbing Denver TRACON
Wed 12:53:05 PM 39.7667 -104.2833 90° East 365 420 13,900 2,500 Climbing Denver TRACON
Wed 12:54:05 PM 39.7500 -104.1500 99° East 385 443 15,500 1,827 Climbing Denver TRACON
Wed 12:55:00 PM 39.6641 -103.7130 98° East  Level Estimated
Wed 12:56:22 PM 39.7447 -103.8042 91° East 432 497 19,900  Level Denver Center
Wed 12:57:24 PM 39.7364 -103.6603 94° East 431 496 21,600 1,694 Climbing Denver Center
Wed 12:58:26 PM 39.7197 -103.4600 96° East 464 534 23,400 1,645 Climbing Denver Center
Wed 12:59:28 PM 39.7053 -103.2864 96° East 480 552 25,000 1,645 Climbing Denver Center
Wed 01:00:30 PM 39.6914 -103.1103 96° East 489 563 26,800 1,500 Climbing Denver Center
Wed 01:01:32 PM 39.6761 -102.9308 96° East 499 574 28,100 1,258 Climbing Denver Center
Wed 01:02:34 PM 39.6614 -102.7486 96° East 508 585 29,400 1,742 Climbing Denver Center
Wed 01:03:36 PM 39.6428 -102.5372 96° East 508 585 31,700 1,742 Climbing Denver Center
Wed 01:04:38 PM 39.6269 -102.3664 97° East 501 577 33,000 1,258 Climbing Denver Center
Wed 01:05:40 PM 39.6086 -102.1661 97° East 503 579 34,300 968 Climbing Denver Center
Wed 01:06:42 PM 39.5922 -101.9944 97° East 502 578 35,000 339 Climbing Denver Center
Wed 01:07:44 PM 39.5772 -101.7981 96° East 494 568 35,000  Level Denver Center
Wed 01:08:46 PM 39.5633 -101.6261 96° East 499 574 35,000  Level Denver Center
Wed 01:09:49 PM 39.5456 -101.4267 97° East 501 577 35,000  Level Denver Center
Wed 01:10:51 PM 39.5231 -101.2558 100° East 503 579 35,000  Level Denver Center
Wed 01:11:53 PM 39.4981 -101.0872 101° East 502 578 35,000  Level Denver Center
Wed 01:12:55 PM 39.4686 -100.8894 101° East 503 579 35,000  Level Denver Center
Wed 01:13:57 PM 39.4417 -100.7189 102° East 505 581 35,000  Level Denver Center
Wed 01:14:59 PM 39.4119 -100.5236 101° East 500 575 35,000  Level Denver Center
Wed 01:16:01 PM 39.3853 -100.3533 101° East 503 579 35,000  Level Denver Center
Wed 01:17:03 PM 39.3556 -100.1567 101° East 502 578 35,000  Level Denver Center
Wed 01:18:05 PM 39.3283 -99.9867 102° East 505 581 35,000  Level Denver Center
Wed 01:19:07 PM 39.2972 -99.7906 102° East 502 578 35,000  Level Denver Center
Wed 01:20:09 PM 39.2703 -99.6222 102° East 502 578 35,000  Level Denver Center
Wed 01:21:11 PM 39.2378 -99.4256 102° East 503 579 35,000  Level Denver Center
Wed 01:22:13 PM 39.2103 -99.2575 102° East 502 578 35,000  Level Denver Center
Wed 01:23:15 PM 39.1767 -99.0572 102° East 500 575 35,000  Level Denver Center
Wed 01:25:32 PM 39.1119 -98.6686 102° East 497 572 35,000  Level Denver Center
Wed 01:26:34 PM 39.0811 -98.4972 103° East 494 568 35,000  Level Denver Center
Wed 01:28:02 PM 39.0386 -98.2553 103° East 491 565 35,000  Level Kansas City Center
Wed 01:29:05 PM 39.0086 -98.0822 103° East 493 567 35,000  Level Kansas City Center
Wed 01:30:06 PM 38.9775 -97.9106 103° East 493 567 35,000  Level Kansas City Center
Wed 01:31:10 PM 38.9417 -97.7131 103° East 490 564 35,000  Level Kansas City Center
Wed 01:32:10 PM 38.9117 -97.5494 103° East 490 564 35,000  Level Kansas City Center
Wed 01:33:14 PM 38.8736 -97.3631 105° East 494 568 35,000  Level Kansas City Center
Wed 01:34:14 PM 38.8411 -97.1936 104° East 490 564 35,000  Level Kansas City Center
Wed 01:35:17 PM 38.8081 -97.0247 104° East 488 562 35,000  Level Kansas City Center
Wed 01:36:18 PM 38.7736 -96.8564 105° East 488 562 35,000  Level Kansas City Center
Wed 01:37:21 PM 38.7417 -96.6875 104° East 487 560 35,000  Level Kansas City Center
Wed 01:38:23 PM 38.7008 -96.4983 105° East 493 567 35,000  Level Kansas City Center
Wed 01:39:27 PM 38.6736 -96.3061 100° East 493 567 35,000  Level Kansas City Center
Wed 01:40:27 PM 38.6594 -96.1367 96° East 500 575 35,000  Level Kansas City Center
Wed 01:41:28 PM 38.6472 -95.9383 94° East 501 577 35,000 96 Level Kansas City Center
Wed 01:42:32 PM 38.6364 -95.7672 95° East 505 581 35,200 768 Climbing Kansas City Center
Wed 01:43:33 PM 38.6231 -95.5697 95° East 502 578 36,600 885 Climbing Kansas City Center
Wed 01:44:34 PM 38.6117 -95.4022 95° East 498 573 37,000 192 Climbing Kansas City Center
Wed 01:45:38 PM 38.5986 -95.2069 95° East 496 571 37,000  Level Kansas City Center
Wed 01:46:39 PM 38.5881 -95.0381 95° East 500 575 37,000  Level Kansas City Center
Wed 01:47:43 PM 38.5769 -94.8392 94° East 504 580 37,000  Level Kansas City Center
Wed 01:48:43 PM 38.5661 -94.6681 95° East 506 582 37,000  Level Kansas City Center
Wed 01:49:47 PM 38.5517 -94.4692 95° East 506 582 37,000  Level Kansas City Center
Wed 01:50:47 PM 38.5392 -94.2969 95° East 508 585 37,000  Level Kansas City Center
Wed 01:51:51 PM 38.5244 -94.1258 96° East 509 586 37,000  Level Kansas City Center
Wed 01:52:52 PM 38.5056 -93.9267 97° East 507 583 37,000  Level Kansas City Center
Wed 01:53:55 PM 38.4883 -93.7564 97° East 507 583 37,000  Level Kansas City Center
Wed 01:54:55 PM 38.4706 -93.5419 96° East 510 587 37,000  Level Kansas City Center
Wed 01:55:59 PM 38.4542 -93.3608 97° East 512 589 37,000  Level Kansas City Center
Wed 01:57:00 PM 38.4389 -93.1792 96° East 513 590 37,000  Level Kansas City Center
Wed 01:58:03 PM 38.4236 -92.9978 96° East 512 589 37,000  Level Kansas City Center
Wed 01:59:04 PM 38.4078 -92.8169 96° East 512 589 37,000  Level Kansas City Center
Wed 02:00:05 PM 38.3914 -92.6347 96° East 513 590 37,000  Level Kansas City Center
Wed 02:01:09 PM 38.3678 -92.4533 99° East 514 592 37,000  Level Kansas City Center
Wed 02:02:09 PM 38.3422 -92.2747 100° East 510 587 37,000  Level Kansas City Center
Wed 02:03:12 PM 38.3083 -92.0975 104° East 509 586 37,000  Level Kansas City Center
Wed 02:04:14 PM 38.2656 -91.8856 104° East 510 587 37,000  Level Kansas City Center
Wed 02:05:18 PM 38.2214 -91.7156 108° East 503 579 37,000  Level Kansas City Center
Wed 02:06:19 PM 38.1647 -91.5503 114° Southeast 506 582 37,000  Level Kansas City Center
Wed 02:07:20 PM 38.1056 -91.3872 115° Southeast 506 582 37,000  Level Kansas City Center
Wed 02:08:23 PM 38.0436 -91.2253 116° Southeast 506 582 37,000  Level Kansas City Center
Wed 02:09:24 PM 37.9825 -91.0600 115° Southeast 504 580 37,000  Level Kansas City Center
Wed 02:10:28 PM 37.9228 -90.8989 115° Southeast 506 582 37,000  Level Kansas City Center
Wed 02:11:28 PM 37.8628 -90.7372 115° Southeast 509 586 37,000  Level Kansas City Center
Wed 02:12:32 PM 37.7892 -90.5433 116° Southeast 512 589 37,000  Level Kansas City Center
Wed 02:13:32 PM 37.7286 -90.3806 115° Southeast 514 592 37,000  Level Kansas City Center
Wed 02:14:36 PM 37.6683 -90.2242 116° Southeast 508 585 37,000  Level Kansas City Center
Wed 02:15:37 PM 37.6044 -90.0656 117° Southeast 510 587 37,000  Level Kansas City Center
Wed 02:16:41 PM 37.5353 -89.8983 118° Southeast 513 590 37,000  Level Kansas City Center
Wed 02:17:42 PM 37.4703 -89.7381 117° Southeast 514 592 37,000  Level Kansas City Center
Wed 02:18:44 PM 37.4039 -89.5778 118° Southeast 514 592 37,000  Level Kansas City Center
Wed 02:19:45 PM 37.3233 -89.3853 118° Southeast 516 594 37,000  Level Kansas City Center
Wed 02:20:27 PM 37.2878 -89.2906 115° Southeast 508 585 37,000  Level Memphis Center
Wed 02:21:27 PM 37.2839 -89.1133 92° East 494 568 37,000  Level Memphis Center
Wed 02:22:27 PM 37.2989 -88.9411 84° East 488 562 37,000  Level Memphis Center
Wed 02:23:27 PM 37.3133 -88.7661 84° East 495 570 37,000  Level Memphis Center
Wed 02:24:27 PM 37.3256 -88.5911 85° East 500 575 37,000  Level Memphis Center
Wed 02:25:27 PM 37.3375 -88.4239 85° East 495 570 37,000  Level Memphis Center
Wed 02:26:27 PM 37.2994 -88.2581 106° East 495 570 37,000  Level Memphis Center
Wed 02:27:27 PM 37.2056 -88.1197 130° Southeast 477 549 37,000  Level Memphis Center
Wed 02:28:27 PM 37.0986 -87.9772 133° Southeast 496 571 37,000  Level Memphis Center
Wed 02:29:27 PM 37.0022 -87.8425 132° Southeast 513 590 37,000  Level Memphis Center
Wed 02:30:27 PM 36.9186 -87.7308 133° Southeast 513 590 37,000  Level Memphis Center
Wed 02:31:27 PM 36.8219 -87.5967 132° Southeast 513 590 37,000 -400 Level Memphis Center
Wed 02:32:27 PM 36.7786 -87.4375 109° East 490 564 36,200 -1,000 Descending Memphis Center
Wed 02:33:27 PM 36.7517 -87.2728 101° East 479 551 35,000 -600 Descending Memphis Center
Wed 02:34:27 PM 36.7206 -87.1136 104° East 472 543 35,000  Level Memphis Center
Wed 02:35:27 PM 36.6867 -86.9364 103° East 472 543 35,000  Level Memphis Center
Wed 02:36:27 PM 36.6181 -86.7919 121° Southeast 466 536 35,000  Level Memphis Center
Wed 02:37:27 PM 36.5472 -86.6503 122° Southeast 480 552 35,000  Level Memphis Center
Wed 02:38:27 PM 36.4761 -86.5067 122° Southeast 485 558 35,000  Level Memphis Center
Wed 02:39:27 PM 36.3717 -86.4342 151° Southeast 471 542 35,000 -350 Level Memphis Center
Wed 02:40:27 PM 36.2378 -86.4225 176° South 458 527 34,300 -500 Descending Memphis Center
Wed 02:41:27 PM 36.1083 -86.4108 176° South 470 541 34,000 -600 Descending Memphis Center
Wed 02:42:27 PM 35.9800 -86.3786 169° South 476 548 33,100 -1,000 Descending Memphis Center
Wed 02:43:27 PM 35.8589 -86.3078 155° Southeast 470 541 32,000 -636 Descending Memphis Center
Wed 02:45:45 PM 35.5897 -86.1431 154° Southeast 479 551 31,000 -303 Descending Atlanta Center
Wed 02:46:45 PM 35.4700 -86.0711 154° Southeast 472 543 31,000 -200 Level Atlanta Center
Wed 02:47:45 PM 35.3336 -85.9914 155° Southeast 484 557 30,600 -450 Descending Atlanta Center
Wed 02:48:45 PM 35.2256 -85.9658 169° South 447 514 30,100 -650 Descending Atlanta Center
Wed 02:49:45 PM 35.1167 -85.9864 189° South 421 484 29,300 -1,000 Descending Atlanta Center
Wed 02:50:45 PM 35.0058 -85.9964 184° South 414 476 28,100 -1,150 Descending Atlanta Center
Wed 02:51:45 PM 34.9086 -85.9358 153° Southeast 384 442 27,000 -1,000 Descending Atlanta Center
Wed 02:52:45 PM 34.8267 -85.8456 138° Southeast 384 442 26,100 -1,050 Descending Atlanta Center
Wed 02:53:45 PM 34.7464 -85.7603 139° Southeast 384 442 24,900 -1,150 Descending Atlanta Center
Wed 02:54:45 PM 34.6664 -85.6703 137° Southeast 390 449 23,800 -950 Descending Atlanta Center
Wed 02:55:45 PM 34.5839 -85.5828 139° Southeast 390 449 23,000 -1,100 Descending Atlanta Center
Wed 02:56:45 PM 34.5056 -85.4983 138° Southeast 390 449 21,600 -1,650 Descending Atlanta Center
Wed 02:57:45 PM 34.4294 -85.4139 138° Southeast 384 442 19,700 -1,750 Descending Atlanta Center
Wed 02:58:45 PM 34.3553 -85.3272 136° Southeast 379 436 18,100 -1,450 Descending Atlanta Center
Wed 02:59:45 PM 34.2831 -85.2481 138° Southeast 360 414 16,800 -1,400 Descending Atlanta Center
Wed 03:00:45 PM 34.2128 -85.1717 138° Southeast 347 399 15,300 -1,500 Descending Atlanta Center
Wed 03:01:45 PM 34.1444 -85.0931 136° Southeast 341 392 13,800 -1,150 Descending Atlanta Center
Wed 03:02:45 PM 34.0764 -85.0094 134° Southeast 329 379 13,000 -600 Descending Atlanta Center
Wed 03:03:45 PM 34.0100 -84.9408 139° Southeast 315 362 12,600 -1,000 Descending Atlanta Center
Wed 03:04:45 PM 33.9247 -84.9300 174° South 301 346 11,000 -1,500 Descending Atlanta Center
Wed 03:05:45 PM 33.8411 -84.9167 172° South 301 346 9,600 -1,000 Descending Atlanta Center
Wed 03:06:45 PM 33.7578 -84.9033 172° South 306 352 9,000 -750 Descending Atlanta Center
Wed 03:07:45 PM 33.6869 -84.8853 168° South 283 326 8,100 -1,000 Descending Atlanta Center
Wed 03:08:45 PM 33.6308 -84.8497 152° Southeast 250 288 7,000 -980 Descending Atlanta Center
Wed 03:10:12 PM 33.6333 -84.7500 88° East 200 230 5,700 -939 Descending Atlanta TRACON
Wed 03:11:12 PM 33.6333 -84.6833 90° East 202 232 4,700 -1,050 Descending Atlanta TRACON
Wed 03:12:12 PM 33.6333 -84.6167 90° East 190 219 3,600 -1,050 Descending Atlanta TRACON
Wed 03:13:12 PM 33.6333 -84.5500 90° East 183 211 2,600 -900 Descending Atlanta TRACON
Wed 03:14:12 PM 33.6333 -84.5000 90° East 141 162 1,800 -700 Descending Atlanta TRACON
Wed 03:15:12 PM 33.6333 -84.4500 90° East 131 151 1,200 -600 Descending Atlanta TRACON

Login

Don't have an account? Register now (free) for customized features, flight alerts, and more!